ミールヌイ の空港の天気 - METARとTAF

Mirny ( UERR / MJZ ) - ロシア ミールヌイ
飛行場実況気象(Metar)
観測時間-
風向・風速- -
視程-
天気現象-
-
気温-
湿度-
気圧-
METAR-
過去の天気等 Google飛行場航空写真 Wunderground天気予報

過去48時間のMETAR

飛行場予報(TAF)
発表時間: 2/17 23:00 YAKT (2/17 14:00 UTC)
予報対象時間: 18日0時 YAKT ~ 19日0時 YAKT
風向・風速不定 1m/s
視程4000m
天気現象弱い雪
全天の8割程度の雲 雲底高度 460m
全天を覆う雲 雲底高度 3050m
18日0時 YAKT ~ 18日6時 YAKT に一時的に
視程2000m
天気現象
全天を覆う雲 雲底高度 210m
TAF UERR 171400Z 1715/1815 VRB01MPS 4000 -SN BKN015 OVC100
TEMPO 1715/1721 2000 SN OVC007